Portada
METAR-TAF:

METAR-TAF

Aeropuertos :

Aeropuerto de Sion

Sion, Suiza

latitud: 46-13N, longitud: 007-20E, altitud: 482 m

Observación

El informe se hizo hace 30 minutos, a las 08:50 UTC
Viento 2 kt con dirección variable
Temperatura 7°C
Humedad 49%
Presión 1018 hPa
Visibilidad 10 km o más
Escasas nubes a una altura de 6000 ft

METAR: LSGS 160850Z VRB02KT 9999 FEW060 07/M03 Q1018

Hora: 11:20 (09:20 UTC)

Pronóstico

El informe se hizo hace 55 minutos, a las 08:25 UTC
Pronóstico válido del 16 a las 09 UTC al 16 a las 18 UTC
Viento 2 kt con dirección variable
Visibilidad 10 km o más
Escasas nubes a una altura de 5000 ft
Evolucionando progresivamente
del 16 a las 11 UTC al 16 a las 13 UTC
Viento 10 kt del oeste-suroeste

TAF: LSGS 160825Z 1609/1618 VRB02KT 9999 FEW050 BECMG 1611/1613 25010KT

Observaciones y pronósticos meteorológicos de más de 4000 aeropuertos (mensajes METAR y TAF).

Los puntos amarillos y rojos representan las estaciones disponibles.

Ponga el ratón en el punto deseado para ver el nombre de la estación.

Haga clic para ver las observaciones y los pronósticos meteorológicos.

Para cambiar el mapa : haga clic en los botones verdes con una cruz de color negro para hacer un zoom, en el botón verde con un guión para alejar o en las flechas verdes para mapas adyacentes.


METAR-TAF: